Wauneta, Nebraska
Current Conditions -  °F | °C
As of 9:53 AM on Friday 24 Oct 2014 (Local Time) from KIML Reporting Station
Clear Clear  
Wind Chill: 62°   Ceiling: Unl
Heat Index: 62°   Visibility: 10mi
Dew Point: 38°   Wind: 6mph
Humidity: 41%   Direction: 290°WNW
Pressure: 30.07"   Gusts: NA
Location:  40.42°N, 101.37°W
Report Text: KIML 241553Z AUTO 29005KT 10SM CLR 17/03 A3007 RMK AO2 SLP170 T01670033 $
Loading
Personal Weather Stations






























Interactive Weather Map
Tropical Storm Tracking
New forecast layout! Learn more

10-Day Weather Forecast

Advertisements
Track Severe Weather on mobile